sensor_id;sensor_type;location;lat;lon;timestamp;pressure;altitude;pressure_sealevel;temperature;humidity
54439;BME280;40347;53.848;27.498;2022-10-31T00:03:47;1013.2;;;6.7;58.9
54439;BME280;40347;53.848;27.498;2022-10-31T00:08:53;1013.2;;;6.7;58.6
54439;BME280;40347;53.848;27.498;2022-10-31T00:13:59;1013.2;;;6.7;58.7
54439;BME280;40347;53.848;27.498;2022-10-31T00:18:59;1013.1;;;6.6;58.2
54439;BME280;40347;53.848;27.498;2022-10-31T00:24:10;1013.1;;;6.3;57.7
54439;BME280;40347;53.848;27.498;2022-10-31T00:28:47;1013.1;;;6.4;58.2
54439;BME280;40347;53.848;27.498;2022-10-31T00:33:47;1013.1;;;6.4;58.4
54439;BME280;40347;53.848;27.498;2022-10-31T00:38:57;1013.2;;;6.5;58.1
54439;BME280;40347;53.848;27.498;2022-10-31T00:43:59;1013.2;;;6.4;57.3
54439;BME280;40347;53.848;27.498;2022-10-31T00:48:47;1013.2;;;6.4;57.5
54439;BME280;40347;53.848;27.498;2022-10-31T00:53:47;1013.2;;;6.5;57.6
54439;BME280;40347;53.848;27.498;2022-10-31T00:59:31;1013.2;;;6.5;57.4
54439;BME280;40347;53.848;27.498;2022-10-31T01:03:47;1013.2;;;6.4;58
54439;BME280;40347;53.848;27.498;2022-10-31T01:08:59;1013.1;;;6.5;58.2
54439;BME280;40347;53.848;27.498;2022-10-31T01:14:08;1013.1;;;6.5;58.2
54439;BME280;40347;53.848;27.498;2022-10-31T01:18:47;1013.1;;;6.4;58.4
54439;BME280;40347;53.848;27.498;2022-10-31T01:23:53;1013.1;;;6.4;58.9
54439;BME280;40347;53.848;27.498;2022-10-31T01:28:47;1013.2;;;6.4;59.3
54439;BME280;40347;53.848;27.498;2022-10-31T01:34:23;1013.2;;;6.4;59.5
54439;BME280;40347;53.848;27.498;2022-10-31T01:39:09;1013.3;;;6.3;59.7
54439;BME280;40347;53.848;27.498;2022-10-31T01:43:59;1013.4;;;6.2;60.3
54439;BME280;40347;53.848;27.498;2022-10-31T01:49:04;1013.5;;;6.1;60.7
54439;BME280;40347;53.848;27.498;2022-10-31T01:53:47;1013.5;;;6.1;61.2
54439;BME280;40347;53.848;27.498;2022-10-31T01:58:47;1013.5;;;6.1;61.9
54439;BME280;40347;53.848;27.498;2022-10-31T02:03:47;1013.6;;;6;62.1
54439;BME280;40347;53.848;27.498;2022-10-31T02:09:03;1013.6;;;6;62.1
54439;BME280;40347;53.848;27.498;2022-10-31T02:13:53;1013.7;;;6.1;62.3
54439;BME280;40347;53.848;27.498;2022-10-31T02:18:47;1013.7;;;6;63
54439;BME280;40347;53.848;27.498;2022-10-31T02:24:00;1013.7;;;5.9;64.1
54439;BME280;40347;53.848;27.498;2022-10-31T02:29:10;1013.8;;;5.8;64.4
54439;BME280;40347;53.848;27.498;2022-10-31T02:33:55;1013.8;;;5.8;64.5
54439;BME280;40347;53.848;27.498;2022-10-31T02:38:55;1013.8;;;5.8;64.7
54439;BME280;40347;53.848;27.498;2022-10-31T02:43:49;1013.8;;;5.8;65
54439;BME280;40347;53.848;27.498;2022-10-31T02:48:47;1013.9;;;5.8;65.2
54439;BME280;40347;53.848;27.498;2022-10-31T02:54:15;1014;;;5.8;65.3
54439;BME280;40347;53.848;27.498;2022-10-31T02:58:47;1014.1;;;5.7;65.7
54439;BME280;40347;53.848;27.498;2022-10-31T03:03:51;1014.1;;;5.7;66.2
54439;BME280;40347;53.848;27.498;2022-10-31T03:09:10;1014.1;;;5.6;66.1
54439;BME280;40347;53.848;27.498;2022-10-31T03:13:47;1014.1;;;5.7;66.4
54439;BME280;40347;53.848;27.498;2022-10-31T03:18:48;1014.2;;;5.5;67.1
54439;BME280;40347;53.848;27.498;2022-10-31T03:24:03;1014.2;;;5.5;67.5
54439;BME280;40347;53.848;27.498;2022-10-31T03:28:54;1014.2;;;5.4;67.3
54439;BME280;40347;53.848;27.498;2022-10-31T03:33:53;1014.2;;;5.4;67.8
54439;BME280;40347;53.848;27.498;2022-10-31T03:38:47;1014.3;;;5.3;68.2
54439;BME280;40347;53.848;27.498;2022-10-31T03:43:48;1014.3;;;5.3;68.3
54439;BME280;40347;53.848;27.498;2022-10-31T03:48:47;1014.4;;;5.3;68.5
54439;BME280;40347;53.848;27.498;2022-10-31T03:53:47;1014.4;;;5.3;68.3
54439;BME280;40347;53.848;27.498;2022-10-31T03:59:09;1014.4;;;5.3;68.1
54439;BME280;40347;53.848;27.498;2022-10-31T04:03:47;1014.4;;;5.2;68.3
54439;BME280;40347;53.848;27.498;2022-10-31T04:08:59;1014.5;;;5.2;68.3
54439;BME280;40347;53.848;27.498;2022-10-31T04:13:55;1014.5;;;5.1;69.2
54439;BME280;40347;53.848;27.498;2022-10-31T04:18:47;1014.6;;;5;69.8
54439;BME280;40347;53.848;27.498;2022-10-31T04:24:11;1014.6;;;5;69.3
54439;BME280;40347;53.848;27.498;2022-10-31T04:28:47;1014.7;;;5;68.8
54439;BME280;40347;53.848;27.498;2022-10-31T04:33:59;1014.7;;;5;68.8
54439;BME280;40347;53.848;27.498;2022-10-31T04:39:03;1014.7;;;5;68.5
54439;BME280;40347;53.848;27.498;2022-10-31T04:44:07;1014.8;;;5;68.4
54439;BME280;40347;53.848;27.498;2022-10-31T04:49:07;1014.9;;;4.9;68.3
54439;BME280;40347;53.848;27.498;2022-10-31T04:53:59;1015;;;4.9;68.1
54439;BME280;40347;53.848;27.498;2022-10-31T04:59:05;1015;;;4.9;67.9
54439;BME280;40347;53.848;27.498;2022-10-31T05:03:47;1015;;;4.9;67.5
54439;BME280;40347;53.848;27.498;2022-10-31T05:08:47;1015;;;4.9;67.1
54439;BME280;40347;53.848;27.498;2022-10-31T05:13:47;1015.1;;;4.9;67
54439;BME280;40347;53.848;27.498;2022-10-31T05:18:47;1015.1;;;4.8;66.8
54439;BME280;40347;53.848;27.498;2022-10-31T05:23:59;1015.1;;;4.8;66.6
54439;BME280;40347;53.848;27.498;2022-10-31T05:28:55;1015.2;;;4.8;66.4
54439;BME280;40347;53.848;27.498;2022-10-31T05:34:21;1015.2;;;4.8;66.4
54439;BME280;40347;53.848;27.498;2022-10-31T05:38:47;1015.3;;;5;66.1
54439;BME280;40347;53.848;27.498;2022-10-31T05:43:47;1015.4;;;5;65.5
54439;BME280;40347;53.848;27.498;2022-10-31T05:48:59;1015.5;;;5;65.1
54439;BME280;40347;53.848;27.498;2022-10-31T05:54:05;1015.5;;;5.1;64.2
54439;BME280;40347;53.848;27.498;2022-10-31T05:58:47;1015.6;;;5.3;63.5
54439;BME280;40347;53.848;27.498;2022-10-31T06:03:59;1015.7;;;5.4;62.4
54439;BME280;40347;53.848;27.498;2022-10-31T06:08:47;1015.7;;;5.5;61.2
54439;BME280;40347;53.848;27.498;2022-10-31T06:13:59;1015.9;;;5.6;61.4
54439;BME280;40347;53.848;27.498;2022-10-31T06:18:47;1015.9;;;5.8;61.4
54439;BME280;40347;53.848;27.498;2022-10-31T06:23:56;1015.9;;;5.8;60.5
54439;BME280;40347;53.848;27.498;2022-10-31T06:28:47;1015.9;;;5.9;60.7
54439;BME280;40347;53.848;27.498;2022-10-31T06:33:59;1016;;;6;60.6
54439;BME280;40347;53.848;27.498;2022-10-31T06:38:47;1016;;;6.2;60.7
54439;BME280;40347;53.848;27.498;2022-10-31T06:44:07;1015.9;;;6.3;60.1
54439;BME280;40347;53.848;27.498;2022-10-31T06:48:55;1015.9;;;6.4;60
54439;BME280;40347;53.848;27.498;2022-10-31T06:53:59;1016;;;6.6;60.5
54439;BME280;40347;53.848;27.498;2022-10-31T06:58:47;1016;;;6.8;60.4
54439;BME280;40347;53.848;27.498;2022-10-31T07:03:47;1016;;;6.9;59.6
54439;BME280;40347;53.848;27.498;2022-10-31T07:09:05;1016.1;;;6.8;59.8
54439;BME280;40347;53.848;27.498;2022-10-31T07:13:47;1016;;;6.9;60.3
54439;BME280;40347;53.848;27.498;2022-10-31T07:18:47;1016.1;;;7;59.8
54439;BME280;40347;53.848;27.498;2022-10-31T07:24:09;1016.1;;;7;59.8
54439;BME280;40347;53.848;27.498;2022-10-31T07:28:59;1016.2;;;7.2;60
54439;BME280;40347;53.848;27.498;2022-10-31T07:33:47;1016.3;;;7.4;59.6
54439;BME280;40347;53.848;27.498;2022-10-31T07:38:55;1016.3;;;7.5;59.2
54439;BME280;40347;53.848;27.498;2022-10-31T07:43:59;1016.2;;;7.5;58.6
54439;BME280;40347;53.848;27.498;2022-10-31T07:48:47;1016.3;;;7.7;58.2
54439;BME280;40347;53.848;27.498;2022-10-31T07:53:47;1016.3;;;7.7;57.7
54439;BME280;40347;53.848;27.498;2022-10-31T07:59:07;1016.3;;;7.7;57.8
54439;BME280;40347;53.848;27.498;2022-10-31T08:03:47;1016.3;;;7.8;57.3
54439;BME280;40347;53.848;27.498;2022-10-31T08:08:47;1016.3;;;7.8;57.5
54439;BME280;40347;53.848;27.498;2022-10-31T08:13:59;1016.3;;;7.8;57.5
54439;BME280;40347;53.848;27.498;2022-10-31T08:19:11;1016.3;;;8;57.8
54439;BME280;40347;53.848;27.498;2022-10-31T08:23:47;1016.3;;;8.1;57.4
54439;BME280;40347;53.848;27.498;2022-10-31T08:28:47;1016.2;;;8.2;57
54439;BME280;40347;53.848;27.498;2022-10-31T08:33:47;1016.3;;;8.4;57.2
54439;BME280;40347;53.848;27.498;2022-10-31T08:38:59;1016.3;;;8.6;56.8
54439;BME280;40347;53.848;27.498;2022-10-31T08:43:47;1016.4;;;8.7;55.8
54439;BME280;40347;53.848;27.498;2022-10-31T08:48:57;1016.5;;;8.6;55
54439;BME280;40347;53.848;27.498;2022-10-31T08:54:05;1016.5;;;8.5;54.9
54439;BME280;40347;53.848;27.498;2022-10-31T08:58:47;1016.6;;;8.4;53.1
54439;BME280;40347;53.848;27.498;2022-10-31T09:03:47;1016.7;;;8.3;52.9
54439;BME280;40347;53.848;27.498;2022-10-31T09:08:47;1016.7;;;8.4;52.7
54439;BME280;40347;53.848;27.498;2022-10-31T09:13:47;1016.8;;;8.5;51.6
54439;BME280;40347;53.848;27.498;2022-10-31T09:18:47;1016.8;;;8.5;50.6
54439;BME280;40347;53.848;27.498;2022-10-31T09:23:47;1016.8;;;8.7;51
54439;BME280;40347;53.848;27.498;2022-10-31T09:28:47;1016.9;;;8.8;50.8
54439;BME280;40347;53.848;27.498;2022-10-31T09:33:47;1016.9;;;9;50.2
54439;BME280;40347;53.848;27.498;2022-10-31T09:38:47;1016.9;;;9.2;51.1
54439;BME280;40347;53.848;27.498;2022-10-31T09:43:50;1017;;;9.1;49.7
54439;BME280;40347;53.848;27.498;2022-10-31T09:49:03;1017;;;9.2;50.6
54439;BME280;40347;53.848;27.498;2022-10-31T09:53:48;1017;;;9.1;48.8
54439;BME280;40347;53.848;27.498;2022-10-31T09:58:47;1016.9;;;9;49.1
54439;BME280;40347;53.848;27.498;2022-10-31T10:04:14;1017;;;9.2;50.3
54439;BME280;40347;53.848;27.498;2022-10-31T10:08:47;1017;;;9.4;49.5
54439;BME280;40347;53.848;27.498;2022-10-31T10:13:53;1017;;;9.3;48.2
54439;BME280;40347;53.848;27.498;2022-10-31T10:18:51;1017.1;;;9.4;49.2
54439;BME280;40347;53.848;27.498;2022-10-31T10:24:03;1017.1;;;9.5;50.2
54439;BME280;40347;53.848;27.498;2022-10-31T10:28:48;1017;;;9.6;49.2
54439;BME280;40347;53.848;27.498;2022-10-31T10:34:11;1017.1;;;9.4;49
54439;BME280;40347;53.848;27.498;2022-10-31T10:38:49;1017.1;;;9.4;49.4
54439;BME280;40347;53.848;27.498;2022-10-31T10:43:48;1017.1;;;9.6;50.3
54439;BME280;40347;53.848;27.498;2022-10-31T10:48:48;1017.1;;;9.8;50.2
54439;BME280;40347;53.848;27.498;2022-10-31T10:53:50;1017.1;;;9.8;49.5
54439;BME280;40347;53.848;27.498;2022-10-31T10:58:47;1017.1;;;9.6;49.5
54439;BME280;40347;53.848;27.498;2022-10-31T11:03:59;1017;;;9.7;50.2
54439;BME280;40347;53.848;27.498;2022-10-31T11:09:08;1017.1;;;9.8;49.6
54439;BME280;40347;53.848;27.498;2022-10-31T11:13:48;1017.1;;;9.7;49.8
54439;BME280;40347;53.848;27.498;2022-10-31T11:19:05;1017.1;;;9.7;49.9
54439;BME280;40347;53.848;27.498;2022-10-31T11:23:47;1017.1;;;9.8;49.9
54439;BME280;40347;53.848;27.498;2022-10-31T11:28:59;1017.1;;;9.8;49.5
54439;BME280;40347;53.848;27.498;2022-10-31T11:34:00;1017.1;;;9.8;49.1
54439;BME280;40347;53.848;27.498;2022-10-31T11:38:47;1017.1;;;9.8;48.4
54439;BME280;40347;53.848;27.498;2022-10-31T11:43:48;1017.1;;;9.7;48.1
54439;BME280;40347;53.848;27.498;2022-10-31T11:48:55;1017.1;;;9.8;48.3
54439;BME280;40347;53.848;27.498;2022-10-31T11:53:59;1017.1;;;9.8;48.4
54439;BME280;40347;53.848;27.498;2022-10-31T11:59:01;1017.1;;;9.9;48.1
54439;BME280;40347;53.848;27.498;2022-10-31T12:03:48;1017.1;;;10;48
54439;BME280;40347;53.848;27.498;2022-10-31T12:08:47;1017.2;;;10.1;48.2
54439;BME280;40347;53.848;27.498;2022-10-31T12:13:50;1017.1;;;10.2;48.1
54439;BME280;40347;53.848;27.498;2022-10-31T12:19:11;1017.2;;;10.2;47.2
54439;BME280;40347;53.848;27.498;2022-10-31T12:23:50;1017.1;;;10.2;47.3
54439;BME280;40347;53.848;27.498;2022-10-31T12:29:03;1017.1;;;10;47
54439;BME280;40347;53.848;27.498;2022-10-31T12:34:16;1017.1;;;10;47.8
54439;BME280;40347;53.848;27.498;2022-10-31T12:38:59;1017.2;;;10.1;47.9
54439;BME280;40347;53.848;27.498;2022-10-31T12:44:02;1017.2;;;10.2;47.7
54439;BME280;40347;53.848;27.498;2022-10-31T12:49:03;1017.2;;;10.2;46.9
54439;BME280;40347;53.848;27.498;2022-10-31T12:53:53;1017.2;;;10.2;46.9
54439;BME280;40347;53.848;27.498;2022-10-31T12:58:56;1017.2;;;10.1;46.9
54439;BME280;40347;53.848;27.498;2022-10-31T13:03:48;1017.2;;;10.2;47.2
54439;BME280;40347;53.848;27.498;2022-10-31T13:08:56;1017.2;;;10.2;46.9
54439;BME280;40347;53.848;27.498;2022-10-31T13:13:49;1017.2;;;10.3;47.4
54439;BME280;40347;53.848;27.498;2022-10-31T13:18:47;1017.2;;;10.3;46.8
54439;BME280;40347;53.848;27.498;2022-10-31T13:23:55;1017.2;;;10.3;46.5
54439;BME280;40347;53.848;27.498;2022-10-31T13:28:57;1017.2;;;10.3;46.8
54439;BME280;40347;53.848;27.498;2022-10-31T13:33:48;1017.2;;;10.3;47.1
54439;BME280;40347;53.848;27.498;2022-10-31T13:39:12;1017.3;;;10.3;47.6
54439;BME280;40347;53.848;27.498;2022-10-31T13:44:00;1017.3;;;10.3;47.3
54439;BME280;40347;53.848;27.498;2022-10-31T13:49:35;1017.3;;;10.3;47
54439;BME280;40347;53.848;27.498;2022-10-31T13:53:57;1017.3;;;10.2;47.4
54439;BME280;40347;53.848;27.498;2022-10-31T13:59:16;1017.2;;;10.2;48.3
54439;BME280;40347;53.848;27.498;2022-10-31T14:03:55;1017.3;;;10.2;48.2
54439;BME280;40347;53.848;27.498;2022-10-31T14:08:48;1017.2;;;10.1;48.8
54439;BME280;40347;53.848;27.498;2022-10-31T14:13:57;1017.2;;;10.1;49.1
54439;BME280;40347;53.848;27.498;2022-10-31T14:18:57;1017.2;;;10;49.4
54439;BME280;40347;53.848;27.498;2022-10-31T14:23:55;1017.2;;;9.9;49.7
54439;BME280;40347;53.848;27.498;2022-10-31T14:28:47;1017.3;;;9.8;50.1
54439;BME280;40347;53.848;27.498;2022-10-31T14:33:55;1017.3;;;9.5;50.2
54439;BME280;40347;53.848;27.498;2022-10-31T14:38:56;1017.3;;;9.5;50.5
54439;BME280;40347;53.848;27.498;2022-10-31T14:43:53;1017.3;;;9.4;50.9
54439;BME280;40347;53.848;27.498;2022-10-31T14:49:01;1017.4;;;9.3;51.1
54439;BME280;40347;53.848;27.498;2022-10-31T14:53:48;1017.4;;;9.3;51.3
54439;BME280;40347;53.848;27.498;2022-10-31T14:58:47;1017.4;;;9.2;51.6
54439;BME280;40347;53.848;27.498;2022-10-31T15:03:57;1017.5;;;9.1;51.9
54439;BME280;40347;53.848;27.498;2022-10-31T15:08:55;1017.5;;;9.1;52.3
54439;BME280;40347;53.848;27.498;2022-10-31T15:13:48;1017.5;;;9;52.5
54439;BME280;40347;53.848;27.498;2022-10-31T15:19:00;1017.5;;;8.9;52.9
54439;BME280;40347;53.848;27.498;2022-10-31T15:24:11;1017.5;;;8.8;53.3
54439;BME280;40347;53.848;27.498;2022-10-31T15:28:57;1017.5;;;8.7;53.7
54439;BME280;40347;53.848;27.498;2022-10-31T15:33:47;1017.5;;;8.6;54.4
54439;BME280;40347;53.848;27.498;2022-10-31T15:38:48;1017.6;;;8.6;54.4
54439;BME280;40347;53.848;27.498;2022-10-31T15:44:00;1017.6;;;8.5;55
54439;BME280;40347;53.848;27.498;2022-10-31T15:48:47;1017.6;;;8.5;54.9
54439;BME280;40347;53.848;27.498;2022-10-31T15:53:55;1017.6;;;8.5;55.3
54439;BME280;40347;53.848;27.498;2022-10-31T15:58:55;1017.6;;;8.5;55.7
54439;BME280;40347;53.848;27.498;2022-10-31T16:04:19;1017.7;;;8.4;56.3
54439;BME280;40347;53.848;27.498;2022-10-31T16:08:48;1017.7;;;8.4;56.2
54439;BME280;40347;53.848;27.498;2022-10-31T16:13:56;1017.8;;;8.3;56.4
54439;BME280;40347;53.848;27.498;2022-10-31T16:18:47;1017.8;;;8.2;56.9
54439;BME280;40347;53.848;27.498;2022-10-31T16:23:47;1017.8;;;8.1;57.3
54439;BME280;40347;53.848;27.498;2022-10-31T16:28:55;1017.9;;;8.2;57.3
54439;BME280;40347;53.848;27.498;2022-10-31T16:34:12;1017.9;;;8.1;57.6
54439;BME280;40347;53.848;27.498;2022-10-31T16:39:21;1017.9;;;8.1;57.7
54439;BME280;40347;53.848;27.498;2022-10-31T16:43:55;1018;;;7.9;58.5
54439;BME280;40347;53.848;27.498;2022-10-31T16:49:09;1018;;;7.8;58.5
54439;BME280;40347;53.848;27.498;2022-10-31T16:53:47;1018;;;7.8;58.4
54439;BME280;40347;53.848;27.498;2022-10-31T16:58:47;1018;;;7.9;58.3
54439;BME280;40347;53.848;27.498;2022-10-31T17:03:47;1018.1;;;7.9;58.2
54439;BME280;40347;53.848;27.498;2022-10-31T17:08:47;1018.1;;;7.8;58.1
54439;BME280;40347;53.848;27.498;2022-10-31T17:14:07;1018.2;;;7.8;58
54439;BME280;40347;53.848;27.498;2022-10-31T17:18:57;1018.2;;;7.9;57.9
54439;BME280;40347;53.848;27.498;2022-10-31T17:23:59;1018.2;;;7.9;57.8
54439;BME280;40347;53.848;27.498;2022-10-31T17:29:07;1018.2;;;7.8;57.6
54439;BME280;40347;53.848;27.498;2022-10-31T17:33:47;1018.3;;;7.8;57.8
54439;BME280;40347;53.848;27.498;2022-10-31T17:38:47;1018.3;;;7.8;57.9
54439;BME280;40347;53.848;27.498;2022-10-31T17:43:47;1018.3;;;7.8;58
54439;BME280;40347;53.848;27.498;2022-10-31T17:48:48;1018.4;;;7.8;57.9
54439;BME280;40347;53.848;27.498;2022-10-31T17:53:47;1018.4;;;7.8;57.9
54439;BME280;40347;53.848;27.498;2022-10-31T17:58:55;1018.5;;;7.7;58
54439;BME280;40347;53.848;27.498;2022-10-31T18:04:09;1018.6;;;7.7;58.2
54439;BME280;40347;53.848;27.498;2022-10-31T18:08:47;1018.6;;;7.7;58.3
54439;BME280;40347;53.848;27.498;2022-10-31T18:13:59;1018.6;;;7.7;58.4
54439;BME280;40347;53.848;27.498;2022-10-31T18:18:48;1018.7;;;7.7;58.5
54439;BME280;40347;53.848;27.498;2022-10-31T18:23:47;1018.7;;;7.7;58.6
54439;BME280;40347;53.848;27.498;2022-10-31T18:28:55;1018.7;;;7.6;58.7
54439;BME280;40347;53.848;27.498;2022-10-31T18:33:47;1018.8;;;7.6;59
54439;BME280;40347;53.848;27.498;2022-10-31T18:38:47;1018.8;;;7.6;59.2
54439;BME280;40347;53.848;27.498;2022-10-31T18:43:59;1018.8;;;7.6;59.3
54439;BME280;40347;53.848;27.498;2022-10-31T18:49:09;1018.9;;;7.6;59.4
54439;BME280;40347;53.848;27.498;2022-10-31T18:54:07;1018.9;;;7.6;59.6
54439;BME280;40347;53.848;27.498;2022-10-31T18:58:47;1018.9;;;7.4;60
54439;BME280;40347;53.848;27.498;2022-10-31T19:04:11;1019;;;7.5;60.1
54439;BME280;40347;53.848;27.498;2022-10-31T19:09:00;1019;;;7.4;60.4
54439;BME280;40347;53.848;27.498;2022-10-31T19:13:55;1019;;;7.4;60.6
54439;BME280;40347;53.848;27.498;2022-10-31T19:18:47;1019;;;7.4;60.6
54439;BME280;40347;53.848;27.498;2022-10-31T19:23:47;1019;;;7.3;60.6
54439;BME280;40347;53.848;27.498;2022-10-31T19:28:59;1019.1;;;7.3;60.7
54439;BME280;40347;53.848;27.498;2022-10-31T19:33:55;1019;;;7.3;60.9
54439;BME280;40347;53.848;27.498;2022-10-31T19:39:21;1019;;;7.3;61
54439;BME280;40347;53.848;27.498;2022-10-31T19:43:47;1019;;;7.3;60.9
54439;BME280;40347;53.848;27.498;2022-10-31T19:48:55;1019.1;;;7.2;61.1
54439;BME280;40347;53.848;27.498;2022-10-31T19:53:55;1019.2;;;7.1;61.6
54439;BME280;40347;53.848;27.498;2022-10-31T19:58:47;1019.2;;;7;61.9
54439;BME280;40347;53.848;27.498;2022-10-31T20:03:55;1019.2;;;7.1;61.9
54439;BME280;40347;53.848;27.498;2022-10-31T20:09:08;1019.2;;;7;62
54439;BME280;40347;53.848;27.498;2022-10-31T20:13:59;1019.2;;;7;61.8
54439;BME280;40347;53.848;27.498;2022-10-31T20:18:47;1019.2;;;7;62
54439;BME280;40347;53.848;27.498;2022-10-31T20:23:47;1019.3;;;6.9;62.2
54439;BME280;40347;53.848;27.498;2022-10-31T20:29:05;1019.3;;;6.9;62.2
54439;BME280;40347;53.848;27.498;2022-10-31T20:33:47;1019.3;;;6.9;62.2
54439;BME280;40347;53.848;27.498;2022-10-31T20:38:47;1019.4;;;6.9;62.4
54439;BME280;40347;53.848;27.498;2022-10-31T20:43:47;1019.4;;;6.8;62.4
54439;BME280;40347;53.848;27.498;2022-10-31T20:49:07;1019.5;;;6.8;62.5
54439;BME280;40347;53.848;27.498;2022-10-31T20:53:58;1019.5;;;6.8;62.8
54439;BME280;40347;53.848;27.498;2022-10-31T20:58:47;1019.5;;;6.8;62.9
54439;BME280;40347;53.848;27.498;2022-10-31T21:03:55;1019.5;;;6.9;62.7
54439;BME280;40347;53.848;27.498;2022-10-31T21:08:47;1019.5;;;6.8;63.1
54439;BME280;40347;53.848;27.498;2022-10-31T21:13:47;1019.4;;;6.7;63.1
54439;BME280;40347;53.848;27.498;2022-10-31T21:18:59;1019.3;;;6.7;63.4
54439;BME280;40347;53.848;27.498;2022-10-31T21:24:11;1019.3;;;6.7;63.2
54439;BME280;40347;53.848;27.498;2022-10-31T21:28:47;1019.3;;;6.7;63.2
54439;BME280;40347;53.848;27.498;2022-10-31T21:33:47;1019.3;;;6.7;63.2
54439;BME280;40347;53.848;27.498;2022-10-31T21:38:59;1019.2;;;6.6;63.3
54439;BME280;40347;53.848;27.498;2022-10-31T21:43:57;1019.2;;;6.5;63.4
54439;BME280;40347;53.848;27.498;2022-10-31T21:48:48;1019.3;;;6.5;63.6
54439;BME280;40347;53.848;27.498;2022-10-31T21:53:47;1019.3;;;6.5;63.8
54439;BME280;40347;53.848;27.498;2022-10-31T21:58:47;1019.3;;;6.5;63.9
54439;BME280;40347;53.848;27.498;2022-10-31T22:04:11;1019.2;;;6.4;63.7
54439;BME280;40347;53.848;27.498;2022-10-31T22:08:56;1019.2;;;6.4;63.9
54439;BME280;40347;53.848;27.498;2022-10-31T22:13:48;1019.3;;;6.4;64.1
54439;BME280;40347;53.848;27.498;2022-10-31T22:18:56;1019.2;;;6.4;64.2
54439;BME280;40347;53.848;27.498;2022-10-31T22:23:48;1019.2;;;6.4;64.2
54439;BME280;40347;53.848;27.498;2022-10-31T22:28:48;1019.2;;;6.3;64.3
54439;BME280;40347;53.848;27.498;2022-10-31T22:34:33;1019.2;;;6.3;64.3
54439;BME280;40347;53.848;27.498;2022-10-31T22:38:47;1019.2;;;6.3;64.5
54439;BME280;40347;53.848;27.498;2022-10-31T22:43:47;1019.3;;;6.3;64.6
54439;BME280;40347;53.848;27.498;2022-10-31T22:49:10;1019.3;;;6.3;64.6
54439;BME280;40347;53.848;27.498;2022-10-31T22:53:59;1019.2;;;6.2;64.5
54439;BME280;40347;53.848;27.498;2022-10-31T22:58:56;1019.2;;;6.1;64.5
54439;BME280;40347;53.848;27.498;2022-10-31T23:03:47;1019.2;;;6;64.4
54439;BME280;40347;53.848;27.498;2022-10-31T23:09:06;1019.2;;;6;64.6
54439;BME280;40347;53.848;27.498;2022-10-31T23:13:48;1019.2;;;5.9;64.8
54439;BME280;40347;53.848;27.498;2022-10-31T23:18:55;1019.2;;;5.9;64.9
54439;BME280;40347;53.848;27.498;2022-10-31T23:23:55;1019.2;;;5.9;65
54439;BME280;40347;53.848;27.498;2022-10-31T23:28:47;1019.1;;;5.9;65
54439;BME280;40347;53.848;27.498;2022-10-31T23:33:47;1019.2;;;5.9;65
54439;BME280;40347;53.848;27.498;2022-10-31T23:38:57;1019.2;;;5.9;65.1
54439;BME280;40347;53.848;27.498;2022-10-31T23:43:47;1019.2;;;5.8;65.2
54439;BME280;40347;53.848;27.498;2022-10-31T23:48:47;1019.2;;;5.8;65.1
54439;BME280;40347;53.848;27.498;2022-10-31T23:53:55;1019.2;;;5.8;65.1
54439;BME280;40347;53.848;27.498;2022-10-31T23:58:55;1019.3;;;5.7;65.4
